sensor_id;sensor_type;location;lat;lon;timestamp;temperature;humidity
74384;DHT22;62824;52.994;-3.936;2023-08-24T00:02:06;16.10;99.90
74384;DHT22;62824;52.994;-3.936;2023-08-24T00:04:32;16.00;99.90
74384;DHT22;62824;52.994;-3.936;2023-08-24T00:06:59;16.00;99.90
74384;DHT22;62824;52.994;-3.936;2023-08-24T00:09:26;16.10;99.90
74384;DHT22;62824;52.994;-3.936;2023-08-24T00:11:52;16.00;99.90
74384;DHT22;62824;52.994;-3.936;2023-08-24T00:14:18;16.00;99.90
74384;DHT22;62824;52.994;-3.936;2023-08-24T00:16:44;16.00;99.90
74384;DHT22;62824;52.994;-3.936;2023-08-24T00:19:10;16.00;99.90
74384;DHT22;62824;52.994;-3.936;2023-08-24T00:21:36;16.00;99.90
74384;DHT22;62824;52.994;-3.936;2023-08-24T00:24:02;16.00;99.90
74384;DHT22;62824;52.994;-3.936;2023-08-24T00:26:27;15.90;99.90
74384;DHT22;62824;52.994;-3.936;2023-08-24T00:28:53;15.90;99.90
74384;DHT22;62824;52.994;-3.936;2023-08-24T00:31:19;15.80;99.90
74384;DHT22;62824;52.994;-3.936;2023-08-24T00:33:45;15.70;99.90
74384;DHT22;62824;52.994;-3.936;2023-08-24T00:36:10;15.60;99.90
74384;DHT22;62824;52.994;-3.936;2023-08-24T00:38:36;15.60;99.90
74384;DHT22;62824;52.994;-3.936;2023-08-24T00:41:02;15.50;99.90
74384;DHT22;62824;52.994;-3.936;2023-08-24T00:43:29;15.50;99.90
74384;DHT22;62824;52.994;-3.936;2023-08-24T00:46:00;15.50;99.90
74384;DHT22;62824;52.994;-3.936;2023-08-24T00:48:27;15.60;99.90
74384;DHT22;62824;52.994;-3.936;2023-08-24T00:50:55;15.60;99.90
74384;DHT22;62824;52.994;-3.936;2023-08-24T00:53:21;15.60;99.90
74384;DHT22;62824;52.994;-3.936;2023-08-24T00:55:49;15.70;99.90
74384;DHT22;62824;52.994;-3.936;2023-08-24T00:58:15;15.70;99.90
74384;DHT22;62824;52.994;-3.936;2023-08-24T01:00:42;15.70;99.90
74384;DHT22;62824;52.994;-3.936;2023-08-24T01:03:09;15.70;99.90
74384;DHT22;62824;52.994;-3.936;2023-08-24T01:05:34;15.80;99.90
74384;DHT22;62824;52.994;-3.936;2023-08-24T01:08:00;15.80;99.90
74384;DHT22;62824;52.994;-3.936;2023-08-24T01:10:36;15.80;99.90
74384;DHT22;62824;52.994;-3.936;2023-08-24T01:13:10;15.80;99.90
74384;DHT22;62824;52.994;-3.936;2023-08-24T01:15:58;15.80;99.90
74384;DHT22;62824;52.994;-3.936;2023-08-24T01:18:25;15.70;99.90
74384;DHT22;62824;52.994;-3.936;2023-08-24T01:20:53;15.70;99.90
74384;DHT22;62824;52.994;-3.936;2023-08-24T01:23:53;15.60;99.90
74384;DHT22;62824;52.994;-3.936;2023-08-24T01:26:22;15.70;99.90
74384;DHT22;62824;52.994;-3.936;2023-08-24T01:28:48;15.70;99.90
74384;DHT22;62824;52.994;-3.936;2023-08-24T01:31:15;15.70;99.90
74384;DHT22;62824;52.994;-3.936;2023-08-24T01:33:45;15.70;99.90
74384;DHT22;62824;52.994;-3.936;2023-08-24T01:36:13;15.70;99.90
74384;DHT22;62824;52.994;-3.936;2023-08-24T01:38:39;15.70;99.90
74384;DHT22;62824;52.994;-3.936;2023-08-24T01:41:27;15.70;99.90
74384;DHT22;62824;52.994;-3.936;2023-08-24T01:43:54;15.70;99.90
74384;DHT22;62824;52.994;-3.936;2023-08-24T01:46:22;15.60;99.90
74384;DHT22;62824;52.994;-3.936;2023-08-24T01:48:51;15.60;99.90
74384;DHT22;62824;52.994;-3.936;2023-08-24T01:51:18;15.70;99.90
74384;DHT22;62824;52.994;-3.936;2023-08-24T01:53:44;15.70;99.90
74384;DHT22;62824;52.994;-3.936;2023-08-24T01:56:11;15.70;99.90
74384;DHT22;62824;52.994;-3.936;2023-08-24T01:58:37;15.60;99.90
74384;DHT22;62824;52.994;-3.936;2023-08-24T02:01:05;15.60;99.90
74384;DHT22;62824;52.994;-3.936;2023-08-24T02:03:31;15.60;99.90
74384;DHT22;62824;52.994;-3.936;2023-08-24T02:05:57;15.60;99.90
74384;DHT22;62824;52.994;-3.936;2023-08-24T02:08:23;15.50;99.90
74384;DHT22;62824;52.994;-3.936;2023-08-24T02:10:48;15.50;99.90
74384;DHT22;62824;52.994;-3.936;2023-08-24T02:13:14;15.60;99.90
74384;DHT22;62824;52.994;-3.936;2023-08-24T02:15:40;15.60;99.90
74384;DHT22;62824;52.994;-3.936;2023-08-24T02:18:06;15.60;99.90
74384;DHT22;62824;52.994;-3.936;2023-08-24T02:20:36;15.60;99.90
74384;DHT22;62824;52.994;-3.936;2023-08-24T02:23:03;15.60;99.90
74384;DHT22;62824;52.994;-3.936;2023-08-24T02:25:29;15.60;99.90
74384;DHT22;62824;52.994;-3.936;2023-08-24T02:27:55;15.60;99.90
74384;DHT22;62824;52.994;-3.936;2023-08-24T02:30:20;15.60;99.90
74384;DHT22;62824;52.994;-3.936;2023-08-24T02:32:46;15.60;99.90
74384;DHT22;62824;52.994;-3.936;2023-08-24T02:35:12;15.70;99.90
74384;DHT22;62824;52.994;-3.936;2023-08-24T02:37:38;15.60;99.90
74384;DHT22;62824;52.994;-3.936;2023-08-24T02:40:04;15.60;99.90
74384;DHT22;62824;52.994;-3.936;2023-08-24T02:42:33;15.60;99.90
74384;DHT22;62824;52.994;-3.936;2023-08-24T02:44:59;15.60;99.90
74384;DHT22;62824;52.994;-3.936;2023-08-24T02:47:25;15.60;99.90
74384;DHT22;62824;52.994;-3.936;2023-08-24T02:49:50;15.60;99.90
74384;DHT22;62824;52.994;-3.936;2023-08-24T02:52:17;15.60;99.90
74384;DHT22;62824;52.994;-3.936;2023-08-24T02:54:43;15.60;99.90
74384;DHT22;62824;52.994;-3.936;2023-08-24T02:57:08;15.60;99.90
74384;DHT22;62824;52.994;-3.936;2023-08-24T02:59:34;15.70;99.90
74384;DHT22;62824;52.994;-3.936;2023-08-24T03:02:00;15.70;99.90
74384;DHT22;62824;52.994;-3.936;2023-08-24T03:04:27;15.70;99.90
74384;DHT22;62824;52.994;-3.936;2023-08-24T03:06:52;15.70;99.90
74384;DHT22;62824;52.994;-3.936;2023-08-24T03:09:18;15.70;99.90
74384;DHT22;62824;52.994;-3.936;2023-08-24T03:11:44;15.70;99.90
74384;DHT22;62824;52.994;-3.936;2023-08-24T03:14:09;15.80;99.90
74384;DHT22;62824;52.994;-3.936;2023-08-24T03:16:37;15.80;99.90
74384;DHT22;62824;52.994;-3.936;2023-08-24T03:19:04;15.80;99.90
74384;DHT22;62824;52.994;-3.936;2023-08-24T03:21:30;15.80;99.90
74384;DHT22;62824;52.994;-3.936;2023-08-24T03:23:56;15.80;99.90
74384;DHT22;62824;52.994;-3.936;2023-08-24T03:26:22;15.80;99.90
74384;DHT22;62824;52.994;-3.936;2023-08-24T03:28:49;15.80;99.90
74384;DHT22;62824;52.994;-3.936;2023-08-24T03:31:15;15.80;99.90
74384;DHT22;62824;52.994;-3.936;2023-08-24T03:33:41;15.80;99.90
74384;DHT22;62824;52.994;-3.936;2023-08-24T03:36:07;15.80;99.90
74384;DHT22;62824;52.994;-3.936;2023-08-24T03:38:33;15.70;99.90
74384;DHT22;62824;52.994;-3.936;2023-08-24T03:41:03;15.70;99.90
74384;DHT22;62824;52.994;-3.936;2023-08-24T03:43:35;15.80;99.90
74384;DHT22;62824;52.994;-3.936;2023-08-24T03:46:01;15.70;99.90
74384;DHT22;62824;52.994;-3.936;2023-08-24T03:48:27;15.70;99.90
74384;DHT22;62824;52.994;-3.936;2023-08-24T03:50:56;15.70;99.90
74384;DHT22;62824;52.994;-3.936;2023-08-24T03:53:23;15.70;99.90
74384;DHT22;62824;52.994;-3.936;2023-08-24T03:55:50;15.70;99.90
74384;DHT22;62824;52.994;-3.936;2023-08-24T03:58:16;15.70;99.90
74384;DHT22;62824;52.994;-3.936;2023-08-24T04:00:42;15.60;99.90
74384;DHT22;62824;52.994;-3.936;2023-08-24T04:03:08;15.70;99.90
74384;DHT22;62824;52.994;-3.936;2023-08-24T04:05:34;15.60;99.90
74384;DHT22;62824;52.994;-3.936;2023-08-24T04:08:00;15.60;99.90
74384;DHT22;62824;52.994;-3.936;2023-08-24T04:10:27;15.60;99.90
74384;DHT22;62824;52.994;-3.936;2023-08-24T04:12:53;15.60;99.90
74384;DHT22;62824;52.994;-3.936;2023-08-24T04:15:18;15.60;99.90
74384;DHT22;62824;52.994;-3.936;2023-08-24T04:17:44;15.60;99.90
74384;DHT22;62824;52.994;-3.936;2023-08-24T04:20:11;15.60;99.90
74384;DHT22;62824;52.994;-3.936;2023-08-24T04:22:36;15.60;99.90
74384;DHT22;62824;52.994;-3.936;2023-08-24T04:25:03;15.50;99.90
74384;DHT22;62824;52.994;-3.936;2023-08-24T04:27:29;15.50;99.90
74384;DHT22;62824;52.994;-3.936;2023-08-24T04:29:54;15.50;99.90
74384;DHT22;62824;52.994;-3.936;2023-08-24T04:32:21;15.60;99.90
74384;DHT22;62824;52.994;-3.936;2023-08-24T04:34:47;15.50;99.90
74384;DHT22;62824;52.994;-3.936;2023-08-24T04:37:12;15.50;99.90
74384;DHT22;62824;52.994;-3.936;2023-08-24T04:39:38;15.60;99.90
74384;DHT22;62824;52.994;-3.936;2023-08-24T04:42:04;15.50;99.90
74384;DHT22;62824;52.994;-3.936;2023-08-24T04:44:31;15.50;99.90
74384;DHT22;62824;52.994;-3.936;2023-08-24T04:46:57;15.50;99.90
74384;DHT22;62824;52.994;-3.936;2023-08-24T04:49:23;15.50;99.90
74384;DHT22;62824;52.994;-3.936;2023-08-24T04:51:49;15.50;99.90
74384;DHT22;62824;52.994;-3.936;2023-08-24T04:54:14;15.50;99.90
74384;DHT22;62824;52.994;-3.936;2023-08-24T04:56:40;15.50;99.90
74384;DHT22;62824;52.994;-3.936;2023-08-24T04:59:06;15.50;99.90
74384;DHT22;62824;52.994;-3.936;2023-08-24T05:01:34;15.50;99.90
74384;DHT22;62824;52.994;-3.936;2023-08-24T05:03:59;15.50;99.90
74384;DHT22;62824;52.994;-3.936;2023-08-24T05:06:25;15.50;99.90
74384;DHT22;62824;52.994;-3.936;2023-08-24T05:08:51;15.50;99.90
74384;DHT22;62824;52.994;-3.936;2023-08-24T05:11:19;15.50;99.90
74384;DHT22;62824;52.994;-3.936;2023-08-24T05:13:45;15.50;99.90
74384;DHT22;62824;52.994;-3.936;2023-08-24T05:16:12;15.50;99.90
74384;DHT22;62824;52.994;-3.936;2023-08-24T05:18:38;15.50;99.90
74384;DHT22;62824;52.994;-3.936;2023-08-24T05:21:05;15.50;99.90
74384;DHT22;62824;52.994;-3.936;2023-08-24T05:23:34;15.50;99.90
74384;DHT22;62824;52.994;-3.936;2023-08-24T05:26:01;15.50;99.90
74384;DHT22;62824;52.994;-3.936;2023-08-24T05:28:29;15.50;99.90
74384;DHT22;62824;52.994;-3.936;2023-08-24T05:30:55;15.40;99.90
74384;DHT22;62824;52.994;-3.936;2023-08-24T05:33:22;15.30;99.90
74384;DHT22;62824;52.994;-3.936;2023-08-24T05:35:49;15.30;99.90
74384;DHT22;62824;52.994;-3.936;2023-08-24T05:38:15;15.30;99.90
74384;DHT22;62824;52.994;-3.936;2023-08-24T05:40:42;15.30;99.90
74384;DHT22;62824;52.994;-3.936;2023-08-24T05:43:11;15.40;99.90
74384;DHT22;62824;52.994;-3.936;2023-08-24T05:45:37;15.30;99.90
74384;DHT22;62824;52.994;-3.936;2023-08-24T05:48:05;15.30;99.90
74384;DHT22;62824;52.994;-3.936;2023-08-24T05:50:31;15.30;99.90
74384;DHT22;62824;52.994;-3.936;2023-08-24T05:52:57;15.20;99.90
74384;DHT22;62824;52.994;-3.936;2023-08-24T05:55:22;15.30;99.90
74384;DHT22;62824;52.994;-3.936;2023-08-24T05:57:48;15.20;99.90
74384;DHT22;62824;52.994;-3.936;2023-08-24T06:00:14;15.20;99.90
74384;DHT22;62824;52.994;-3.936;2023-08-24T06:02:40;15.20;99.90
74384;DHT22;62824;52.994;-3.936;2023-08-24T06:05:07;15.10;99.90
74384;DHT22;62824;52.994;-3.936;2023-08-24T06:07:33;15.20;99.90
74384;DHT22;62824;52.994;-3.936;2023-08-24T06:09:59;15.20;99.90
74384;DHT22;62824;52.994;-3.936;2023-08-24T06:12:25;15.20;99.90
74384;DHT22;62824;52.994;-3.936;2023-08-24T06:14:51;15.20;99.90
74384;DHT22;62824;52.994;-3.936;2023-08-24T06:17:16;15.20;99.90
74384;DHT22;62824;52.994;-3.936;2023-08-24T06:19:42;15.20;99.90
74384;DHT22;62824;52.994;-3.936;2023-08-24T06:22:08;15.20;99.90
74384;DHT22;62824;52.994;-3.936;2023-08-24T06:24:35;15.10;99.90
74384;DHT22;62824;52.994;-3.936;2023-08-24T06:27:01;15.20;99.90
74384;DHT22;62824;52.994;-3.936;2023-08-24T06:29:30;15.20;99.90
74384;DHT22;62824;52.994;-3.936;2023-08-24T06:31:56;15.20;99.90
74384;DHT22;62824;52.994;-3.936;2023-08-24T06:34:22;15.20;99.90
74384;DHT22;62824;52.994;-3.936;2023-08-24T06:36:49;15.20;99.90
74384;DHT22;62824;52.994;-3.936;2023-08-24T06:39:15;15.20;99.90
74384;DHT22;62824;52.994;-3.936;2023-08-24T06:41:41;15.20;99.90
74384;DHT22;62824;52.994;-3.936;2023-08-24T06:44:07;15.20;99.90
74384;DHT22;62824;52.994;-3.936;2023-08-24T06:46:33;15.20;99.90
74384;DHT22;62824;52.994;-3.936;2023-08-24T06:48:59;15.20;99.90
74384;DHT22;62824;52.994;-3.936;2023-08-24T06:51:26;15.10;99.90
74384;DHT22;62824;52.994;-3.936;2023-08-24T06:53:52;15.10;99.90
74384;DHT22;62824;52.994;-3.936;2023-08-24T06:56:18;15.00;99.90
74384;DHT22;62824;52.994;-3.936;2023-08-24T06:58:47;15.00;99.90
74384;DHT22;62824;52.994;-3.936;2023-08-24T07:01:13;15.00;99.90
74384;DHT22;62824;52.994;-3.936;2023-08-24T07:03:39;15.00;99.90
74384;DHT22;62824;52.994;-3.936;2023-08-24T07:06:07;15.00;99.90
74384;DHT22;62824;52.994;-3.936;2023-08-24T07:08:34;15.00;99.90
74384;DHT22;62824;52.994;-3.936;2023-08-24T07:11:01;15.10;99.90
74384;DHT22;62824;52.994;-3.936;2023-08-24T07:13:28;15.10;99.90
74384;DHT22;62824;52.994;-3.936;2023-08-24T07:15:54;15.30;99.90
74384;DHT22;62824;52.994;-3.936;2023-08-24T07:18:20;15.40;99.90
74384;DHT22;62824;52.994;-3.936;2023-08-24T07:20:47;15.50;99.90
74384;DHT22;62824;52.994;-3.936;2023-08-24T07:23:13;15.60;99.90
74384;DHT22;62824;52.994;-3.936;2023-08-24T07:25:38;15.50;99.90
74384;DHT22;62824;52.994;-3.936;2023-08-24T07:28:04;15.50;99.90
74384;DHT22;62824;52.994;-3.936;2023-08-24T07:30:31;15.50;99.90
74384;DHT22;62824;52.994;-3.936;2023-08-24T07:32:57;15.50;99.90
74384;DHT22;62824;52.994;-3.936;2023-08-24T07:35:23;15.60;99.90
74384;DHT22;62824;52.994;-3.936;2023-08-24T07:37:52;15.80;99.90
74384;DHT22;62824;52.994;-3.936;2023-08-24T07:40:18;15.90;99.90
74384;DHT22;62824;52.994;-3.936;2023-08-24T07:42:48;16.00;99.90
74384;DHT22;62824;52.994;-3.936;2023-08-24T07:45:16;16.10;99.90
74384;DHT22;62824;52.994;-3.936;2023-08-24T07:47:42;16.30;99.90
74384;DHT22;62824;52.994;-3.936;2023-08-24T07:50:09;16.30;99.90
74384;DHT22;62824;52.994;-3.936;2023-08-24T07:52:37;16.30;99.90
74384;DHT22;62824;52.994;-3.936;2023-08-24T07:55:03;16.40;99.90
74384;DHT22;62824;52.994;-3.936;2023-08-24T07:57:30;16.10;99.90
74384;DHT22;62824;52.994;-3.936;2023-08-24T07:59:58;16.10;99.90
74384;DHT22;62824;52.994;-3.936;2023-08-24T08:02:23;16.30;99.90
74384;DHT22;62824;52.994;-3.936;2023-08-24T08:04:49;16.40;99.90
74384;DHT22;62824;52.994;-3.936;2023-08-24T08:07:15;16.50;99.90
74384;DHT22;62824;52.994;-3.936;2023-08-24T08:09:41;16.60;99.90
74384;DHT22;62824;52.994;-3.936;2023-08-24T08:12:06;16.70;99.90
74384;DHT22;62824;52.994;-3.936;2023-08-24T08:14:32;16.90;99.90
74384;DHT22;62824;52.994;-3.936;2023-08-24T08:16:58;17.00;99.90
74384;DHT22;62824;52.994;-3.936;2023-08-24T08:19:23;16.90;99.90
74384;DHT22;62824;52.994;-3.936;2023-08-24T08:21:53;16.90;99.90
74384;DHT22;62824;52.994;-3.936;2023-08-24T08:24:19;17.00;99.90
74384;DHT22;62824;52.994;-3.936;2023-08-24T08:26:45;17.00;99.90
74384;DHT22;62824;52.994;-3.936;2023-08-24T08:29:10;17.00;99.90
74384;DHT22;62824;52.994;-3.936;2023-08-24T08:31:36;17.20;99.90
74384;DHT22;62824;52.994;-3.936;2023-08-24T08:34:02;17.30;99.90
74384;DHT22;62824;52.994;-3.936;2023-08-24T08:36:37;17.50;99.90
74384;DHT22;62824;52.994;-3.936;2023-08-24T08:39:03;17.60;99.90
74384;DHT22;62824;52.994;-3.936;2023-08-24T08:41:33;17.70;99.90
74384;DHT22;62824;52.994;-3.936;2023-08-24T08:44:04;17.60;99.90
74384;DHT22;62824;52.994;-3.936;2023-08-24T08:46:31;17.30;99.90
74384;DHT22;62824;52.994;-3.936;2023-08-24T08:49:00;17.30;99.90
74384;DHT22;62824;52.994;-3.936;2023-08-24T08:51:27;17.20;99.90
74384;DHT22;62824;52.994;-3.936;2023-08-24T08:53:53;17.00;99.90
74384;DHT22;62824;52.994;-3.936;2023-08-24T08:56:19;16.90;99.90
74384;DHT22;62824;52.994;-3.936;2023-08-24T08:58:46;16.80;99.90
74384;DHT22;62824;52.994;-3.936;2023-08-24T09:01:12;16.60;99.90
74384;DHT22;62824;52.994;-3.936;2023-08-24T09:03:39;16.50;99.90
74384;DHT22;62824;52.994;-3.936;2023-08-24T09:06:06;16.40;99.90
74384;DHT22;62824;52.994;-3.936;2023-08-24T09:08:32;16.40;99.90
74384;DHT22;62824;52.994;-3.936;2023-08-24T09:11:01;16.50;99.90
74384;DHT22;62824;52.994;-3.936;2023-08-24T09:13:28;16.50;99.90
74384;DHT22;62824;52.994;-3.936;2023-08-24T09:16:05;16.60;99.90
74384;DHT22;62824;52.994;-3.936;2023-08-24T09:18:39;16.70;99.90
74384;DHT22;62824;52.994;-3.936;2023-08-24T09:21:09;16.70;99.90
74384;DHT22;62824;52.994;-3.936;2023-08-24T09:23:35;16.70;99.90
74384;DHT22;62824;52.994;-3.936;2023-08-24T09:26:01;16.70;99.90
74384;DHT22;62824;52.994;-3.936;2023-08-24T09:28:26;16.70;99.90
74384;DHT22;62824;52.994;-3.936;2023-08-24T09:30:53;16.70;99.90
74384;DHT22;62824;52.994;-3.936;2023-08-24T09:33:22;16.70;99.90
74384;DHT22;62824;52.994;-3.936;2023-08-24T09:35:54;16.70;99.90
74384;DHT22;62824;52.994;-3.936;2023-08-24T09:38:23;16.70;99.90
74384;DHT22;62824;52.994;-3.936;2023-08-24T09:40:54;16.80;99.90
74384;DHT22;62824;52.994;-3.936;2023-08-24T09:43:21;16.90;99.90
74384;DHT22;62824;52.994;-3.936;2023-08-24T09:45:51;16.90;99.90
74384;DHT22;62824;52.994;-3.936;2023-08-24T09:48:17;16.80;99.90
74384;DHT22;62824;52.994;-3.936;2023-08-24T09:50:47;16.70;99.90
74384;DHT22;62824;52.994;-3.936;2023-08-24T09:53:23;16.70;99.90
74384;DHT22;62824;52.994;-3.936;2023-08-24T09:55:56;16.70;99.90
74384;DHT22;62824;52.994;-3.936;2023-08-24T09:58:24;16.80;99.90
74384;DHT22;62824;52.994;-3.936;2023-08-24T10:00:51;16.80;99.90
74384;DHT22;62824;52.994;-3.936;2023-08-24T10:03:21;16.80;99.90
74384;DHT22;62824;52.994;-3.936;2023-08-24T10:05:51;16.90;99.90
74384;DHT22;62824;52.994;-3.936;2023-08-24T10:08:22;16.80;99.90
74384;DHT22;62824;52.994;-3.936;2023-08-24T10:10:53;16.80;99.90
74384;DHT22;62824;52.994;-3.936;2023-08-24T10:13:39;16.80;99.90
74384;DHT22;62824;52.994;-3.936;2023-08-24T10:16:10;16.90;99.90
74384;DHT22;62824;52.994;-3.936;2023-08-24T10:18:40;16.90;99.90
74384;DHT22;62824;52.994;-3.936;2023-08-24T10:21:07;16.80;99.90
74384;DHT22;62824;52.994;-3.936;2023-08-24T10:23:34;16.60;99.90
74384;DHT22;62824;52.994;-3.936;2023-08-24T10:26:06;16.50;99.90
74384;DHT22;62824;52.994;-3.936;2023-08-24T10:28:32;16.50;99.90
74384;DHT22;62824;52.994;-3.936;2023-08-24T10:30:59;16.50;99.90
74384;DHT22;62824;52.994;-3.936;2023-08-24T10:33:27;16.40;99.90
74384;DHT22;62824;52.994;-3.936;2023-08-24T10:35:53;16.50;99.90
74384;DHT22;62824;52.994;-3.936;2023-08-24T10:38:29;16.50;99.90
74384;DHT22;62824;52.994;-3.936;2023-08-24T10:41:02;16.70;99.90
74384;DHT22;62824;52.994;-3.936;2023-08-24T10:43:38;16.90;99.90
74384;DHT22;62824;52.994;-3.936;2023-08-24T10:46:11;17.00;99.90
74384;DHT22;62824;52.994;-3.936;2023-08-24T10:53:58;16.80;99.90
74384;DHT22;62824;52.994;-3.936;2023-08-24T10:56:35;16.90;99.90
74384;DHT22;62824;52.994;-3.936;2023-08-24T10:59:13;17.00;99.90
74384;DHT22;62824;52.994;-3.936;2023-08-24T11:01:57;17.10;99.90
74384;DHT22;62824;52.994;-3.936;2023-08-24T11:04:24;17.10;99.90
74384;DHT22;62824;52.994;-3.936;2023-08-24T11:06:58;17.20;99.90
74384;DHT22;62824;52.994;-3.936;2023-08-24T11:09:48;17.10;99.90
74384;DHT22;62824;52.994;-3.936;2023-08-24T11:12:14;16.90;99.90
74384;DHT22;62824;52.994;-3.936;2023-08-24T11:14:50;16.90;99.90
74384;DHT22;62824;52.994;-3.936;2023-08-24T11:17:20;16.90;99.90
74384;DHT22;62824;52.994;-3.936;2023-08-24T11:19:51;16.90;99.90
74384;DHT22;62824;52.994;-3.936;2023-08-24T11:22:17;16.90;99.90
74384;DHT22;62824;52.994;-3.936;2023-08-24T11:24:44;17.00;99.90
74384;DHT22;62824;52.994;-3.936;2023-08-24T11:27:10;17.20;99.90
74384;DHT22;62824;52.994;-3.936;2023-08-24T11:29:35;17.30;99.90
74384;DHT22;62824;52.994;-3.936;2023-08-24T11:32:02;17.50;99.90
74384;DHT22;62824;52.994;-3.936;2023-08-24T11:34:32;17.60;99.90
74384;DHT22;62824;52.994;-3.936;2023-08-24T11:36:59;17.60;99.90
74384;DHT22;62824;52.994;-3.936;2023-08-24T11:39:25;17.60;99.90
74384;DHT22;62824;52.994;-3.936;2023-08-24T11:42:04;17.60;99.90
74384;DHT22;62824;52.994;-3.936;2023-08-24T11:44:47;17.50;99.90
74384;DHT22;62824;52.994;-3.936;2023-08-24T11:47:13;17.70;99.90
74384;DHT22;62824;52.994;-3.936;2023-08-24T11:49:39;18.00;99.90
74384;DHT22;62824;52.994;-3.936;2023-08-24T11:52:05;18.00;99.90
74384;DHT22;62824;52.994;-3.936;2023-08-24T11:54:34;18.00;99.90
74384;DHT22;62824;52.994;-3.936;2023-08-24T11:57:00;18.10;99.90
74384;DHT22;62824;52.994;-3.936;2023-08-24T11:59:28;18.30;99.90
74384;DHT22;62824;52.994;-3.936;2023-08-24T12:01:54;18.50;99.90
74384;DHT22;62824;52.994;-3.936;2023-08-24T12:04:20;18.70;99.90
74384;DHT22;62824;52.994;-3.936;2023-08-24T12:06:46;18.50;99.90
74384;DHT22;62824;52.994;-3.936;2023-08-24T12:09:12;18.60;99.90
74384;DHT22;62824;52.994;-3.936;2023-08-24T12:11:37;18.70;99.90
74384;DHT22;62824;52.994;-3.936;2023-08-24T12:14:05;18.80;98.70
74384;DHT22;62824;52.994;-3.936;2023-08-24T12:16:33;20.10;85.90
74384;DHT22;62824;52.994;-3.936;2023-08-24T12:18:59;20.40;50.70
74384;DHT22;62824;52.994;-3.936;2023-08-24T12:21:28;20.10;42.20
74384;DHT22;62824;52.994;-3.936;2023-08-24T12:24:06;20.30;33.10
74384;DHT22;62824;52.994;-3.936;2023-08-24T12:26:33;20.60;32.20
74384;DHT22;62824;52.994;-3.936;2023-08-24T12:29:04;21.40;29.50
74384;DHT22;62824;52.994;-3.936;2023-08-24T12:31:32;21.90;24.10
74384;DHT22;62824;52.994;-3.936;2023-08-24T12:34:05;22.40;20.70
74384;DHT22;62824;52.994;-3.936;2023-08-24T12:36:33;22.40;18.70
74384;DHT22;62824;52.994;-3.936;2023-08-24T12:38:59;22.40;19.30
74384;DHT22;62824;52.994;-3.936;2023-08-24T12:41:25;22.30;18.20
74384;DHT22;62824;52.994;-3.936;2023-08-24T12:43:51;22.00;19.20
74384;DHT22;62824;52.994;-3.936;2023-08-24T12:46:17;21.60;18.40
74384;DHT22;62824;52.994;-3.936;2023-08-24T12:48:43;21.30;20.30
74384;DHT22;62824;52.994;-3.936;2023-08-24T12:51:09;21.00;19.10
74384;DHT22;62824;52.994;-3.936;2023-08-24T12:53:35;21.00;21.30
74384;DHT22;62824;52.994;-3.936;2023-08-24T12:56:00;21.60;19.80
74384;DHT22;62824;52.994;-3.936;2023-08-24T12:58:26;22.40;17.20
74384;DHT22;62824;52.994;-3.936;2023-08-24T13:00:52;23.00;14.20
74384;DHT22;62824;52.994;-3.936;2023-08-24T13:03:17;23.50;13.70
74384;DHT22;62824;52.994;-3.936;2023-08-24T13:05:43;24.00;13.20
74384;DHT22;62824;52.994;-3.936;2023-08-24T13:08:09;24.50;12.20
74384;DHT22;62824;52.994;-3.936;2023-08-24T13:10:35;24.90;9.50
74384;DHT22;62824;52.994;-3.936;2023-08-24T13:13:02;24.70;8.80
74384;DHT22;62824;52.994;-3.936;2023-08-24T13:15:29;24.50;10.10
74384;DHT22;62824;52.994;-3.936;2023-08-24T13:17:55;25.10;9.90
74384;DHT22;62824;52.994;-3.936;2023-08-24T13:20:21;25.30;9.50
74384;DHT22;62824;52.994;-3.936;2023-08-24T13:22:47;25.20;8.80
74384;DHT22;62824;52.994;-3.936;2023-08-24T13:25:13;24.90;10.50
74384;DHT22;62824;52.994;-3.936;2023-08-24T13:27:38;25.10;8.20
74384;DHT22;62824;52.994;-3.936;2023-08-24T13:30:05;25.30;8.80
74384;DHT22;62824;52.994;-3.936;2023-08-24T13:32:31;24.50;8.50
74384;DHT22;62824;52.994;-3.936;2023-08-24T13:34:57;24.20;9.40
74384;DHT22;62824;52.994;-3.936;2023-08-24T13:37:23;24.30;9.70
74384;DHT22;62824;52.994;-3.936;2023-08-24T13:39:51;24.20;10.00
74384;DHT22;62824;52.994;-3.936;2023-08-24T13:42:17;24.10;9.70
74384;DHT22;62824;52.994;-3.936;2023-08-24T13:44:44;23.70;8.30
74384;DHT22;62824;52.994;-3.936;2023-08-24T13:47:10;22.90;10.30
74384;DHT22;62824;52.994;-3.936;2023-08-24T13:49:36;22.90;11.70
74384;DHT22;62824;52.994;-3.936;2023-08-24T13:52:02;23.20;9.70
74384;DHT22;62824;52.994;-3.936;2023-08-24T13:54:28;23.90;10.00
74384;DHT22;62824;52.994;-3.936;2023-08-24T13:56:55;24.00;9.50
74384;DHT22;62824;52.994;-3.936;2023-08-24T13:59:22;23.50;10.60
74384;DHT22;62824;52.994;-3.936;2023-08-24T14:01:47;23.60;11.30
74384;DHT22;62824;52.994;-3.936;2023-08-24T14:04:13;23.50;11.80
74384;DHT22;62824;52.994;-3.936;2023-08-24T14:06:39;23.80;10.70
74384;DHT22;62824;52.994;-3.936;2023-08-24T14:09:06;23.90;10.00
74384;DHT22;62824;52.994;-3.936;2023-08-24T14:11:32;23.90;9.90
74384;DHT22;62824;52.994;-3.936;2023-08-24T14:13:58;24.10;9.80
74384;DHT22;62824;52.994;-3.936;2023-08-24T14:16:25;23.40;10.50
74384;DHT22;62824;52.994;-3.936;2023-08-24T14:18:52;23.70;10.90
74384;DHT22;62824;52.994;-3.936;2023-08-24T14:21:18;23.40;8.60
74384;DHT22;62824;52.994;-3.936;2023-08-24T14:23:45;23.30;10.90
74384;DHT22;62824;52.994;-3.936;2023-08-24T14:26:11;23.70;9.90
74384;DHT22;62824;52.994;-3.936;2023-08-24T14:28:57;23.90;9.00
74384;DHT22;62824;52.994;-3.936;2023-08-24T14:31:28;24.10;7.80
74384;DHT22;62824;52.994;-3.936;2023-08-24T14:33:55;23.80;8.70
74384;DHT22;62824;52.994;-3.936;2023-08-24T14:36:21;23.70;9.20
74384;DHT22;62824;52.994;-3.936;2023-08-24T14:38:48;23.50;8.90
74384;DHT22;62824;52.994;-3.936;2023-08-24T14:41:14;23.80;8.10
74384;DHT22;62824;52.994;-3.936;2023-08-24T14:43:41;23.80;7.20
74384;DHT22;62824;52.994;-3.936;2023-08-24T14:46:07;23.40;7.70
74384;DHT22;62824;52.994;-3.936;2023-08-24T14:48:33;23.00;9.00
74384;DHT22;62824;52.994;-3.936;2023-08-24T14:50:59;22.90;8.70
74384;DHT22;62824;52.994;-3.936;2023-08-24T14:53:26;23.10;8.20
74384;DHT22;62824;52.994;-3.936;2023-08-24T14:55:53;23.30;7.90
74384;DHT22;62824;52.994;-3.936;2023-08-24T14:58:21;22.80;8.30
74384;DHT22;62824;52.994;-3.936;2023-08-24T15:00:47;22.50;9.50
74384;DHT22;62824;52.994;-3.936;2023-08-24T15:03:13;22.70;8.50
74384;DHT22;62824;52.994;-3.936;2023-08-24T15:05:59;22.80;8.40
74384;DHT22;62824;52.994;-3.936;2023-08-24T15:08:27;22.70;7.60
74384;DHT22;62824;52.994;-3.936;2023-08-24T15:10:57;22.70;9.00
74384;DHT22;62824;52.994;-3.936;2023-08-24T15:13:24;22.70;7.60
74384;DHT22;62824;52.994;-3.936;2023-08-24T15:15:52;22.10;7.20
74384;DHT22;62824;52.994;-3.936;2023-08-24T15:18:18;21.70;8.90
74384;DHT22;62824;52.994;-3.936;2023-08-24T15:20:44;22.30;9.60
74384;DHT22;62824;52.994;-3.936;2023-08-24T15:23:10;22.30;7.60
74384;DHT22;62824;52.994;-3.936;2023-08-24T15:25:47;21.80;8.30